Andover, Massachusetts
Current Conditions -  °F | °C
As of 5:39 PM on Monday 26 Jan 2015 (Local Time) from KLWM Reporting Station
Light Snow Light Snow  
Wind Chill:   Ceiling: 2200
Heat Index: 20°   Visibility: 1.7mi
Dew Point: 17°   Wind: 14mph
Humidity: 89%   Direction: 10°N
Pressure: 30.08"   Gusts: NA
Location:  42.65°N, 71.14°W
Report Text: KLWM 262239Z 01012KT 1 3/4SM -SN BR BKN022 OVC028 M07/M08 A3008 RMK AO2 P0000 T10671083
Loading
Personal Weather Stations






























Interactive Weather Map New forecast layout! Learn more

10-Day Weather Forecast

Advertisements
Track Severe Weather on mobile